sensor_id;sensor_type;location;lat;lon;timestamp;P1;durP1;ratioP1;P2;durP2;ratioP2
25073;SDS011;13066;52.042;5.648;2022-07-06T00:02:09;3.90;;;1.75;;
25073;SDS011;13066;52.042;5.648;2022-07-06T00:04:37;5.50;;;1.42;;
25073;SDS011;13066;52.042;5.648;2022-07-06T00:07:06;1.73;;;1.30;;
25073;SDS011;13066;52.042;5.648;2022-07-06T00:09:35;2.10;;;1.40;;
25073;SDS011;13066;52.042;5.648;2022-07-06T00:12:04;6.38;;;1.63;;
25073;SDS011;13066;52.042;5.648;2022-07-06T00:14:32;6.82;;;1.55;;
25073;SDS011;13066;52.042;5.648;2022-07-06T00:17:01;3.80;;;1.58;;
25073;SDS011;13066;52.042;5.648;2022-07-06T00:19:30;4.55;;;1.92;;
25073;SDS011;13066;52.042;5.648;2022-07-06T00:21:58;4.03;;;1.80;;
25073;SDS011;13066;52.042;5.648;2022-07-06T00:24:27;4.10;;;1.73;;
25073;SDS011;13066;52.042;5.648;2022-07-06T00:26:56;7.22;;;1.50;;
25073;SDS011;13066;52.042;5.648;2022-07-06T00:29:24;4.47;;;1.58;;
25073;SDS011;13066;52.042;5.648;2022-07-06T00:31:53;5.05;;;1.95;;
25073;SDS011;13066;52.042;5.648;2022-07-06T00:34:21;3.40;;;1.38;;
25073;SDS011;13066;52.042;5.648;2022-07-06T00:36:49;3.00;;;1.30;;
25073;SDS011;13066;52.042;5.648;2022-07-06T00:39:18;8.75;;;1.98;;
25073;SDS011;13066;52.042;5.648;2022-07-06T00:41:48;3.67;;;1.67;;
25073;SDS011;13066;52.042;5.648;2022-07-06T00:44:18;2.47;;;1.35;;
25073;SDS011;13066;52.042;5.648;2022-07-06T00:46:46;4.80;;;1.55;;
25073;SDS011;13066;52.042;5.648;2022-07-06T00:49:14;7.10;;;1.48;;
25073;SDS011;13066;52.042;5.648;2022-07-06T00:51:57;3.45;;;1.83;;
25073;SDS011;13066;52.042;5.648;2022-07-06T00:54:25;9.60;;;1.45;;
25073;SDS011;13066;52.042;5.648;2022-07-06T00:56:55;6.93;;;1.30;;
25073;SDS011;13066;52.042;5.648;2022-07-06T00:59:25;6.38;;;1.60;;
25073;SDS011;13066;52.042;5.648;2022-07-06T01:01:55;6.30;;;1.83;;
25073;SDS011;13066;52.042;5.648;2022-07-06T01:04:25;2.85;;;1.40;;
25073;SDS011;13066;52.042;5.648;2022-07-06T01:06:53;6.35;;;1.65;;
25073;SDS011;13066;52.042;5.648;2022-07-06T01:09:22;4.05;;;1.60;;
25073;SDS011;13066;52.042;5.648;2022-07-06T01:11:50;4.25;;;1.63;;
25073;SDS011;13066;52.042;5.648;2022-07-06T01:14:20;3.45;;;1.40;;
25073;SDS011;13066;52.042;5.648;2022-07-06T01:16:50;9.73;;;1.60;;
25073;SDS011;13066;52.042;5.648;2022-07-06T01:19:18;4.13;;;1.48;;
25073;SDS011;13066;52.042;5.648;2022-07-06T01:21:48;5.70;;;1.55;;
25073;SDS011;13066;52.042;5.648;2022-07-06T01:24:16;3.05;;;1.30;;
25073;SDS011;13066;52.042;5.648;2022-07-06T01:26:44;5.15;;;1.30;;
25073;SDS011;13066;52.042;5.648;2022-07-06T01:29:13;3.58;;;1.95;;
25073;SDS011;13066;52.042;5.648;2022-07-06T01:31:45;4.07;;;1.67;;
25073;SDS011;13066;52.042;5.648;2022-07-06T01:34:15;3.70;;;1.38;;
25073;SDS011;13066;52.042;5.648;2022-07-06T01:36:45;4.75;;;1.40;;
25073;SDS011;13066;52.042;5.648;2022-07-06T01:39:15;8.27;;;2.00;;
25073;SDS011;13066;52.042;5.648;2022-07-06T01:41:43;5.47;;;1.38;;
25073;SDS011;13066;52.042;5.648;2022-07-06T01:44:11;4.80;;;1.83;;
25073;SDS011;13066;52.042;5.648;2022-07-06T01:46:40;5.95;;;1.30;;
25073;SDS011;13066;52.042;5.648;2022-07-06T01:49:08;7.35;;;1.98;;
25073;SDS011;13066;52.042;5.648;2022-07-06T01:51:36;4.28;;;1.70;;
25073;SDS011;13066;52.042;5.648;2022-07-06T01:54:04;2.22;;;1.50;;
25073;SDS011;13066;52.042;5.648;2022-07-06T01:56:34;6.05;;;2.00;;
25073;SDS011;13066;52.042;5.648;2022-07-06T01:59:02;4.32;;;1.33;;
25073;SDS011;13066;52.042;5.648;2022-07-06T02:01:30;5.32;;;1.73;;
25073;SDS011;13066;52.042;5.648;2022-07-06T02:03:58;5.78;;;1.58;;
25073;SDS011;13066;52.042;5.648;2022-07-06T02:06:26;5.38;;;1.33;;
25073;SDS011;13066;52.042;5.648;2022-07-06T02:08:54;3.70;;;1.35;;
25073;SDS011;13066;52.042;5.648;2022-07-06T02:11:23;3.50;;;1.70;;
25073;SDS011;13066;52.042;5.648;2022-07-06T02:13:53;2.45;;;1.60;;
25073;SDS011;13066;52.042;5.648;2022-07-06T02:16:21;6.15;;;1.33;;
25073;SDS011;13066;52.042;5.648;2022-07-06T02:18:49;5.15;;;1.40;;
25073;SDS011;13066;52.042;5.648;2022-07-06T02:21:17;3.45;;;1.42;;
25073;SDS011;13066;52.042;5.648;2022-07-06T02:23:45;6.75;;;1.70;;
25073;SDS011;13066;52.042;5.648;2022-07-06T02:26:13;2.63;;;1.42;;
25073;SDS011;13066;52.042;5.648;2022-07-06T02:28:41;7.53;;;1.55;;
25073;SDS011;13066;52.042;5.648;2022-07-06T02:31:12;2.05;;;1.23;;
25073;SDS011;13066;52.042;5.648;2022-07-06T02:33:41;7.53;;;1.45;;
25073;SDS011;13066;52.042;5.648;2022-07-06T02:36:09;6.65;;;1.80;;
25073;SDS011;13066;52.042;5.648;2022-07-06T02:38:38;4.22;;;1.45;;
25073;SDS011;13066;52.042;5.648;2022-07-06T02:41:06;2.88;;;1.40;;
25073;SDS011;13066;52.042;5.648;2022-07-06T02:43:36;3.08;;;1.38;;
25073;SDS011;13066;52.042;5.648;2022-07-06T02:46:05;6.80;;;1.33;;
25073;SDS011;13066;52.042;5.648;2022-07-06T02:48:34;3.60;;;1.35;;
25073;SDS011;13066;52.042;5.648;2022-07-06T02:51:03;7.50;;;1.58;;
25073;SDS011;13066;52.042;5.648;2022-07-06T02:53:31;4.32;;;1.80;;
25073;SDS011;13066;52.042;5.648;2022-07-06T02:55:59;10.75;;;1.50;;
25073;SDS011;13066;52.042;5.648;2022-07-06T02:58:27;2.90;;;1.45;;
25073;SDS011;13066;52.042;5.648;2022-07-06T03:00:55;6.25;;;1.30;;
25073;SDS011;13066;52.042;5.648;2022-07-06T03:03:23;1.50;;;1.00;;
25073;SDS011;13066;52.042;5.648;2022-07-06T03:05:53;4.00;;;1.50;;
25073;SDS011;13066;52.042;5.648;2022-07-06T03:08:21;3.92;;;1.52;;
25073;SDS011;13066;52.042;5.648;2022-07-06T03:10:49;6.43;;;1.38;;
25073;SDS011;13066;52.042;5.648;2022-07-06T03:13:18;3.90;;;1.75;;
25073;SDS011;13066;52.042;5.648;2022-07-06T03:15:46;2.95;;;1.55;;
25073;SDS011;13066;52.042;5.648;2022-07-06T03:18:14;5.72;;;1.30;;
25073;SDS011;13066;52.042;5.648;2022-07-06T03:20:42;3.75;;;1.20;;
25073;SDS011;13066;52.042;5.648;2022-07-06T03:23:12;3.35;;;1.30;;
25073;SDS011;13066;52.042;5.648;2022-07-06T03:25:40;6.13;;;2.42;;
25073;SDS011;13066;52.042;5.648;2022-07-06T03:28:08;5.68;;;1.55;;
25073;SDS011;13066;52.042;5.648;2022-07-06T03:30:36;3.15;;;1.40;;
25073;SDS011;13066;52.042;5.648;2022-07-06T03:33:04;4.90;;;1.60;;
25073;SDS011;13066;52.042;5.648;2022-07-06T03:35:32;4.53;;;1.30;;
25073;SDS011;13066;52.042;5.648;2022-07-06T03:38:00;6.93;;;1.95;;
25073;SDS011;13066;52.042;5.648;2022-07-06T03:40:30;5.18;;;1.40;;
25073;SDS011;13066;52.042;5.648;2022-07-06T03:42:58;3.22;;;1.42;;
25073;SDS011;13066;52.042;5.648;2022-07-06T03:45:26;7.25;;;1.45;;
25073;SDS011;13066;52.042;5.648;2022-07-06T03:47:54;4.30;;;1.20;;
25073;SDS011;13066;52.042;5.648;2022-07-06T03:50:22;4.38;;;1.05;;
25073;SDS011;13066;52.042;5.648;2022-07-06T03:52:50;4.13;;;1.35;;
25073;SDS011;13066;52.042;5.648;2022-07-06T03:55:18;5.40;;;1.13;;
25073;SDS011;13066;52.042;5.648;2022-07-06T03:57:48;3.47;;;1.42;;
25073;SDS011;13066;52.042;5.648;2022-07-06T04:00:16;5.45;;;1.40;;
25073;SDS011;13066;52.042;5.648;2022-07-06T04:02:44;3.67;;;1.38;;
25073;SDS011;13066;52.042;5.648;2022-07-06T04:05:12;4.50;;;1.50;;
25073;SDS011;13066;52.042;5.648;2022-07-06T04:07:41;2.78;;;1.13;;
25073;SDS011;13066;52.042;5.648;2022-07-06T04:10:09;2.50;;;1.42;;
25073;SDS011;13066;52.042;5.648;2022-07-06T04:12:40;5.70;;;1.30;;
25073;SDS011;13066;52.042;5.648;2022-07-06T04:15:10;1.80;;;1.05;;
25073;SDS011;13066;52.042;5.648;2022-07-06T04:17:39;3.53;;;1.42;;
25073;SDS011;13066;52.042;5.648;2022-07-06T04:20:19;3.63;;;1.20;;
25073;SDS011;13066;52.042;5.648;2022-07-06T04:22:48;5.63;;;1.83;;
25073;SDS011;13066;52.042;5.648;2022-07-06T04:25:16;4.50;;;1.33;;
25073;SDS011;13066;52.042;5.648;2022-07-06T04:27:45;5.25;;;1.80;;
25073;SDS011;13066;52.042;5.648;2022-07-06T04:30:14;5.13;;;1.90;;
25073;SDS011;13066;52.042;5.648;2022-07-06T04:32:43;5.03;;;2.17;;
25073;SDS011;13066;52.042;5.648;2022-07-06T04:35:11;3.25;;;1.70;;
25073;SDS011;13066;52.042;5.648;2022-07-06T04:37:39;5.82;;;2.28;;
25073;SDS011;13066;52.042;5.648;2022-07-06T04:40:07;3.58;;;1.88;;
25073;SDS011;13066;52.042;5.648;2022-07-06T04:42:43;6.45;;;1.92;;
25073;SDS011;13066;52.042;5.648;2022-07-06T04:45:11;7.20;;;2.03;;
25073;SDS011;13066;52.042;5.648;2022-07-06T04:47:41;14.45;;;2.47;;
25073;SDS011;13066;52.042;5.648;2022-07-06T04:50:12;5.60;;;1.77;;
25073;SDS011;13066;52.042;5.648;2022-07-06T04:52:40;14.73;;;1.65;;
25073;SDS011;13066;52.042;5.648;2022-07-06T04:55:08;8.38;;;1.48;;
25073;SDS011;13066;52.042;5.648;2022-07-06T04:57:36;3.75;;;1.20;;
25073;SDS011;13066;52.042;5.648;2022-07-06T05:00:05;6.05;;;1.42;;
25073;SDS011;13066;52.042;5.648;2022-07-06T05:02:34;5.95;;;1.52;;
25073;SDS011;13066;52.042;5.648;2022-07-06T05:05:04;2.85;;;1.02;;
25073;SDS011;13066;52.042;5.648;2022-07-06T05:07:33;4.22;;;1.58;;
25073;SDS011;13066;52.042;5.648;2022-07-06T05:10:06;5.47;;;1.10;;
25073;SDS011;13066;52.042;5.648;2022-07-06T05:12:35;6.38;;;1.45;;
25073;SDS011;13066;52.042;5.648;2022-07-06T05:15:04;4.45;;;1.45;;
25073;SDS011;13066;52.042;5.648;2022-07-06T05:17:32;5.70;;;1.10;;
25073;SDS011;13066;52.042;5.648;2022-07-06T05:20:00;3.13;;;1.33;;
25073;SDS011;13066;52.042;5.648;2022-07-06T05:22:30;6.15;;;1.35;;
25073;SDS011;13066;52.042;5.648;2022-07-06T05:24:58;4.03;;;1.33;;
25073;SDS011;13066;52.042;5.648;2022-07-06T05:27:26;3.95;;;1.35;;
25073;SDS011;13066;52.042;5.648;2022-07-06T05:29:54;2.60;;;1.35;;
25073;SDS011;13066;52.042;5.648;2022-07-06T05:32:22;6.47;;;1.30;;
25073;SDS011;13066;52.042;5.648;2022-07-06T05:34:50;4.18;;;1.10;;
25073;SDS011;13066;52.042;5.648;2022-07-06T05:37:18;4.60;;;1.25;;
25073;SDS011;13066;52.042;5.648;2022-07-06T05:39:48;2.75;;;0.90;;
25073;SDS011;13066;52.042;5.648;2022-07-06T05:42:16;11.32;;;1.52;;
25073;SDS011;13066;52.042;5.648;2022-07-06T05:44:44;4.93;;;1.30;;
25073;SDS011;13066;52.042;5.648;2022-07-06T05:47:12;3.03;;;1.00;;
25073;SDS011;13066;52.042;5.648;2022-07-06T05:49:58;6.70;;;1.10;;
25073;SDS011;13066;52.042;5.648;2022-07-06T05:52:41;3.80;;;1.25;;
25073;SDS011;13066;52.042;5.648;2022-07-06T05:55:12;6.38;;;1.42;;
25073;SDS011;13066;52.042;5.648;2022-07-06T05:57:41;6.65;;;1.50;;
25073;SDS011;13066;52.042;5.648;2022-07-06T06:00:09;1.65;;;0.80;;
25073;SDS011;13066;52.042;5.648;2022-07-06T06:02:38;7.07;;;1.88;;
25073;SDS011;13066;52.042;5.648;2022-07-06T06:05:08;2.40;;;1.02;;
25073;SDS011;13066;52.042;5.648;2022-07-06T06:07:37;1.25;;;0.90;;
25073;SDS011;13066;52.042;5.648;2022-07-06T06:10:07;5.05;;;1.30;;
25073;SDS011;13066;52.042;5.648;2022-07-06T06:12:38;7.75;;;1.27;;
25073;SDS011;13066;52.042;5.648;2022-07-06T06:15:07;8.27;;;1.00;;
25073;SDS011;13066;52.042;5.648;2022-07-06T06:17:36;4.30;;;1.10;;
25073;SDS011;13066;52.042;5.648;2022-07-06T06:20:06;3.95;;;1.17;;
25073;SDS011;13066;52.042;5.648;2022-07-06T06:22:43;4.95;;;1.10;;
25073;SDS011;13066;52.042;5.648;2022-07-06T06:25:13;1.90;;;1.00;;
25073;SDS011;13066;52.042;5.648;2022-07-06T06:27:43;4.97;;;1.60;;
25073;SDS011;13066;52.042;5.648;2022-07-06T06:30:11;6.88;;;1.33;;
25073;SDS011;13066;52.042;5.648;2022-07-06T06:32:40;4.85;;;1.20;;
25073;SDS011;13066;52.042;5.648;2022-07-06T06:35:08;4.15;;;1.20;;
25073;SDS011;13066;52.042;5.648;2022-07-06T06:37:37;6.07;;;1.20;;
25073;SDS011;13066;52.042;5.648;2022-07-06T06:40:05;7.78;;;1.20;;
25073;SDS011;13066;52.042;5.648;2022-07-06T06:42:35;4.15;;;1.00;;
25073;SDS011;13066;52.042;5.648;2022-07-06T06:45:05;9.52;;;1.10;;
25073;SDS011;13066;52.042;5.648;2022-07-06T06:47:34;3.10;;;1.00;;
25073;SDS011;13066;52.042;5.648;2022-07-06T06:50:03;2.15;;;0.93;;
25073;SDS011;13066;52.042;5.648;2022-07-06T06:52:31;8.55;;;1.23;;
25073;SDS011;13066;52.042;5.648;2022-07-06T06:55:06;3.95;;;0.90;;
25073;SDS011;13066;52.042;5.648;2022-07-06T06:57:35;3.35;;;1.25;;
25073;SDS011;13066;52.042;5.648;2022-07-06T07:00:05;5.10;;;0.82;;
25073;SDS011;13066;52.042;5.648;2022-07-06T07:02:34;5.03;;;1.45;;
25073;SDS011;13066;52.042;5.648;2022-07-06T07:05:02;5.13;;;1.20;;
25073;SDS011;13066;52.042;5.648;2022-07-06T07:07:31;2.17;;;0.82;;
25073;SDS011;13066;52.042;5.648;2022-07-06T07:10:00;4.55;;;0.88;;
25073;SDS011;13066;52.042;5.648;2022-07-06T07:12:29;7.07;;;1.17;;
25073;SDS011;13066;52.042;5.648;2022-07-06T07:14:57;3.13;;;1.30;;
25073;SDS011;13066;52.042;5.648;2022-07-06T07:17:27;4.88;;;0.60;;
25073;SDS011;13066;52.042;5.648;2022-07-06T07:19:55;2.00;;;0.57;;
25073;SDS011;13066;52.042;5.648;2022-07-06T07:22:23;3.22;;;0.65;;
25073;SDS011;13066;52.042;5.648;2022-07-06T07:24:52;2.83;;;0.82;;
25073;SDS011;13066;52.042;5.648;2022-07-06T07:27:20;8.68;;;1.38;;
25073;SDS011;13066;52.042;5.648;2022-07-06T07:29:48;4.75;;;1.00;;
25073;SDS011;13066;52.042;5.648;2022-07-06T07:32:16;4.88;;;0.95;;
25073;SDS011;13066;52.042;5.648;2022-07-06T07:34:45;1.38;;;0.45;;
25073;SDS011;13066;52.042;5.648;2022-07-06T07:37:13;3.13;;;0.63;;
25073;SDS011;13066;52.042;5.648;2022-07-06T07:39:42;6.55;;;0.98;;
25073;SDS011;13066;52.042;5.648;2022-07-06T07:42:10;3.70;;;0.65;;
25073;SDS011;13066;52.042;5.648;2022-07-06T07:44:43;4.03;;;0.80;;
25073;SDS011;13066;52.042;5.648;2022-07-06T07:47:11;3.00;;;0.70;;
25073;SDS011;13066;52.042;5.648;2022-07-06T07:49:39;6.18;;;0.82;;
25073;SDS011;13066;52.042;5.648;2022-07-06T07:52:09;4.78;;;0.77;;
25073;SDS011;13066;52.042;5.648;2022-07-06T07:54:37;6.45;;;0.80;;
25073;SDS011;13066;52.042;5.648;2022-07-06T07:57:12;4.85;;;1.13;;
25073;SDS011;13066;52.042;5.648;2022-07-06T07:59:40;6.00;;;0.60;;
25073;SDS011;13066;52.042;5.648;2022-07-06T08:02:09;3.53;;;0.80;;
25073;SDS011;13066;52.042;5.648;2022-07-06T08:04:37;1.63;;;0.40;;
25073;SDS011;13066;52.042;5.648;2022-07-06T08:07:05;0.82;;;0.57;;
25073;SDS011;13066;52.042;5.648;2022-07-06T08:09:35;0.55;;;0.43;;
25073;SDS011;13066;52.042;5.648;2022-07-06T08:12:03;2.60;;;0.63;;
25073;SDS011;13066;52.042;5.648;2022-07-06T08:14:32;3.58;;;0.60;;
25073;SDS011;13066;52.042;5.648;2022-07-06T08:17:00;2.70;;;0.60;;
25073;SDS011;13066;52.042;5.648;2022-07-06T08:19:28;1.13;;;0.50;;
25073;SDS011;13066;52.042;5.648;2022-07-06T08:21:56;5.15;;;0.80;;
25073;SDS011;13066;52.042;5.648;2022-07-06T08:24:25;4.40;;;0.90;;
25073;SDS011;13066;52.042;5.648;2022-07-06T08:26:54;0.93;;;0.50;;
25073;SDS011;13066;52.042;5.648;2022-07-06T08:29:24;6.45;;;0.50;;
25073;SDS011;13066;52.042;5.648;2022-07-06T08:31:52;3.50;;;0.82;;
25073;SDS011;13066;52.042;5.648;2022-07-06T08:34:24;3.35;;;0.52;;
25073;SDS011;13066;52.042;5.648;2022-07-06T08:36:59;5.18;;;0.80;;
25073;SDS011;13066;52.042;5.648;2022-07-06T08:39:27;6.18;;;0.60;;
25073;SDS011;13066;52.042;5.648;2022-07-06T08:41:57;1.67;;;0.80;;
25073;SDS011;13066;52.042;5.648;2022-07-06T08:44:27;1.85;;;0.40;;
25073;SDS011;13066;52.042;5.648;2022-07-06T08:46:57;2.25;;;0.40;;
25073;SDS011;13066;52.042;5.648;2022-07-06T08:49:28;4.07;;;0.90;;
25073;SDS011;13066;52.042;5.648;2022-07-06T08:51:58;4.63;;;0.70;;
25073;SDS011;13066;52.042;5.648;2022-07-06T08:54:26;1.90;;;0.57;;
25073;SDS011;13066;52.042;5.648;2022-07-06T08:56:57;5.57;;;0.60;;
25073;SDS011;13066;52.042;5.648;2022-07-06T08:59:26;0.57;;;0.47;;
25073;SDS011;13066;52.042;5.648;2022-07-06T09:01:54;2.17;;;0.80;;
25073;SDS011;13066;52.042;5.648;2022-07-06T09:04:23;3.75;;;0.43;;
25073;SDS011;13066;52.042;5.648;2022-07-06T09:06:52;1.00;;;0.47;;
25073;SDS011;13066;52.042;5.648;2022-07-06T09:09:23;3.92;;;0.50;;
25073;SDS011;13066;52.042;5.648;2022-07-06T09:11:51;3.42;;;0.82;;
25073;SDS011;13066;52.042;5.648;2022-07-06T09:14:21;1.50;;;0.50;;
25073;SDS011;13066;52.042;5.648;2022-07-06T09:16:51;2.72;;;0.40;;
25073;SDS011;13066;52.042;5.648;2022-07-06T09:19:20;5.85;;;0.73;;
25073;SDS011;13066;52.042;5.648;2022-07-06T09:21:48;2.30;;;0.63;;
25073;SDS011;13066;52.042;5.648;2022-07-06T09:24:16;0.98;;;0.63;;
25073;SDS011;13066;52.042;5.648;2022-07-06T09:26:45;0.75;;;0.43;;
25073;SDS011;13066;52.042;5.648;2022-07-06T09:29:15;2.67;;;0.60;;
25073;SDS011;13066;52.042;5.648;2022-07-06T09:31:56;1.63;;;0.75;;
25073;SDS011;13066;52.042;5.648;2022-07-06T09:34:39;3.60;;;0.98;;
25073;SDS011;13066;52.042;5.648;2022-07-06T09:37:09;2.40;;;0.98;;
25073;SDS011;13066;52.042;5.648;2022-07-06T09:39:37;2.75;;;1.35;;
25073;SDS011;13066;52.042;5.648;2022-07-06T09:42:06;3.80;;;1.35;;
25073;SDS011;13066;52.042;5.648;2022-07-06T09:44:36;4.35;;;1.15;;
25073;SDS011;13066;52.042;5.648;2022-07-06T09:47:07;2.60;;;0.98;;
25073;SDS011;13066;52.042;5.648;2022-07-06T09:49:36;5.45;;;1.13;;
25073;SDS011;13066;52.042;5.648;2022-07-06T09:52:06;1.85;;;0.90;;
25073;SDS011;13066;52.042;5.648;2022-07-06T09:54:38;2.58;;;0.73;;
25073;SDS011;13066;52.042;5.648;2022-07-06T09:57:07;7.38;;;1.05;;
25073;SDS011;13066;52.042;5.648;2022-07-06T09:59:35;4.22;;;0.80;;
25073;SDS011;13066;52.042;5.648;2022-07-06T10:02:05;4.85;;;1.02;;
25073;SDS011;13066;52.042;5.648;2022-07-06T10:04:35;5.15;;;0.65;;
25073;SDS011;13066;52.042;5.648;2022-07-06T10:07:04;4.05;;;1.05;;
25073;SDS011;13066;52.042;5.648;2022-07-06T10:09:33;0.63;;;0.47;;
25073;SDS011;13066;52.042;5.648;2022-07-06T10:12:02;4.03;;;0.52;;
25073;SDS011;13066;52.042;5.648;2022-07-06T10:14:32;4.40;;;0.88;;
25073;SDS011;13066;52.042;5.648;2022-07-06T10:17:02;0.90;;;0.50;;
25073;SDS011;13066;52.042;5.648;2022-07-06T10:19:33;3.67;;;1.00;;
25073;SDS011;13066;52.042;5.648;2022-07-06T10:22:02;2.25;;;0.73;;
25073;SDS011;13066;52.042;5.648;2022-07-06T10:24:31;1.52;;;0.60;;
25073;SDS011;13066;52.042;5.648;2022-07-06T10:27:00;4.80;;;1.05;;
25073;SDS011;13066;52.042;5.648;2022-07-06T10:29:30;2.70;;;0.80;;
25073;SDS011;13066;52.042;5.648;2022-07-06T10:31:58;0.98;;;0.50;;
25073;SDS011;13066;52.042;5.648;2022-07-06T10:34:28;3.97;;;0.60;;
25073;SDS011;13066;52.042;5.648;2022-07-06T10:36:58;2.42;;;0.70;;
25073;SDS011;13066;52.042;5.648;2022-07-06T10:39:32;5.32;;;1.10;;
25073;SDS011;13066;52.042;5.648;2022-07-06T10:45:09;7.03;;;0.73;;
25073;SDS011;13066;52.042;5.648;2022-07-06T10:47:39;2.10;;;0.82;;
25073;SDS011;13066;52.042;5.648;2022-07-06T10:50:08;5.30;;;0.65;;
25073;SDS011;13066;52.042;5.648;2022-07-06T10:52:53;5.30;;;0.80;;
25073;SDS011;13066;52.042;5.648;2022-07-06T10:55:30;2.83;;;1.10;;
25073;SDS011;13066;52.042;5.648;2022-07-06T10:57:59;3.55;;;1.20;;
25073;SDS011;13066;52.042;5.648;2022-07-06T11:00:42;2.42;;;0.70;;
25073;SDS011;13066;52.042;5.648;2022-07-06T11:03:29;3.15;;;1.00;;
25073;SDS011;13066;52.042;5.648;2022-07-06T11:06:02;4.13;;;0.77;;
25073;SDS011;13066;52.042;5.648;2022-07-06T11:08:44;3.00;;;0.95;;
25073;SDS011;13066;52.042;5.648;2022-07-06T11:11:14;2.80;;;0.60;;
25073;SDS011;13066;52.042;5.648;2022-07-06T11:13:47;0.82;;;0.52;;
25073;SDS011;13066;52.042;5.648;2022-07-06T11:16:19;4.25;;;0.73;;
25073;SDS011;13066;52.042;5.648;2022-07-06T11:18:49;4.22;;;1.10;;
25073;SDS011;13066;52.042;5.648;2022-07-06T11:21:32;2.67;;;0.68;;
25073;SDS011;13066;52.042;5.648;2022-07-06T11:24:06;2.17;;;0.70;;
25073;SDS011;13066;52.042;5.648;2022-07-06T11:26:36;1.33;;;0.50;;
25073;SDS011;13066;52.042;5.648;2022-07-06T11:29:07;1.13;;;0.55;;
25073;SDS011;13066;52.042;5.648;2022-07-06T11:31:37;7.70;;;0.60;;
25073;SDS011;13066;52.042;5.648;2022-07-06T11:34:07;2.90;;;0.60;;
25073;SDS011;13066;52.042;5.648;2022-07-06T11:36:37;3.80;;;1.17;;
25073;SDS011;13066;52.042;5.648;2022-07-06T11:39:13;8.05;;;0.80;;
25073;SDS011;13066;52.042;5.648;2022-07-06T11:41:41;3.45;;;0.90;;
25073;SDS011;13066;52.042;5.648;2022-07-06T11:44:16;4.55;;;0.70;;
25073;SDS011;13066;52.042;5.648;2022-07-06T11:46:45;4.15;;;0.82;;
25073;SDS011;13066;52.042;5.648;2022-07-06T11:49:13;1.58;;;0.47;;
25073;SDS011;13066;52.042;5.648;2022-07-06T11:51:42;1.23;;;0.65;;
25073;SDS011;13066;52.042;5.648;2022-07-06T11:54:14;3.25;;;0.75;;
25073;SDS011;13066;52.042;5.648;2022-07-06T11:56:46;2.42;;;0.60;;
25073;SDS011;13066;52.042;5.648;2022-07-06T11:59:16;2.47;;;0.60;;
25073;SDS011;13066;52.042;5.648;2022-07-06T12:01:48;4.28;;;1.10;;
25073;SDS011;13066;52.042;5.648;2022-07-06T12:04:17;1.85;;;0.73;;
25073;SDS011;13066;52.042;5.648;2022-07-06T12:06:46;1.85;;;0.55;;
25073;SDS011;13066;52.042;5.648;2022-07-06T12:09:16;1.05;;;0.50;;
25073;SDS011;13066;52.042;5.648;2022-07-06T12:11:46;4.03;;;0.88;;
25073;SDS011;13066;52.042;5.648;2022-07-06T12:14:15;1.33;;;0.50;;
25073;SDS011;13066;52.042;5.648;2022-07-06T12:16:44;2.50;;;0.63;;
25073;SDS011;13066;52.042;5.648;2022-07-06T12:19:13;3.25;;;0.82;;
25073;SDS011;13066;52.042;5.648;2022-07-06T12:21:43;2.95;;;0.55;;
25073;SDS011;13066;52.042;5.648;2022-07-06T12:24:20;0.95;;;0.35;;
25073;SDS011;13066;52.042;5.648;2022-07-06T12:26:50;1.30;;;0.50;;
25073;SDS011;13066;52.042;5.648;2022-07-06T12:29:19;2.50;;;0.75;;
25073;SDS011;13066;52.042;5.648;2022-07-06T12:31:49;4.00;;;0.60;;
25073;SDS011;13066;52.042;5.648;2022-07-06T12:34:19;1.65;;;0.40;;
25073;SDS011;13066;52.042;5.648;2022-07-06T12:36:49;1.30;;;0.55;;
25073;SDS011;13066;52.042;5.648;2022-07-06T12:39:19;6.40;;;0.60;;
25073;SDS011;13066;52.042;5.648;2022-07-06T12:41:50;6.68;;;1.00;;
25073;SDS011;13066;52.042;5.648;2022-07-06T12:44:19;2.33;;;0.50;;
25073;SDS011;13066;52.042;5.648;2022-07-06T12:46:49;3.35;;;0.68;;
25073;SDS011;13066;52.042;5.648;2022-07-06T12:49:18;4.82;;;0.70;;
25073;SDS011;13066;52.042;5.648;2022-07-06T12:51:49;1.08;;;0.35;;
25073;SDS011;13066;52.042;5.648;2022-07-06T12:54:19;1.83;;;0.60;;
25073;SDS011;13066;52.042;5.648;2022-07-06T12:57:02;0.55;;;0.40;;
25073;SDS011;13066;52.042;5.648;2022-07-06T12:59:33;1.40;;;0.75;;
25073;SDS011;13066;52.042;5.648;2022-07-06T13:02:05;3.45;;;0.88;;
25073;SDS011;13066;52.042;5.648;2022-07-06T13:04:35;3.05;;;0.45;;
25073;SDS011;13066;52.042;5.648;2022-07-06T13:07:04;3.15;;;0.77;;
25073;SDS011;13066;52.042;5.648;2022-07-06T13:09:33;3.75;;;0.65;;
25073;SDS011;13066;52.042;5.648;2022-07-06T13:12:03;1.85;;;0.63;;
25073;SDS011;13066;52.042;5.648;2022-07-06T13:14:32;2.78;;;1.00;;
25073;SDS011;13066;52.042;5.648;2022-07-06T13:17:00;1.83;;;0.63;;
25073;SDS011;13066;52.042;5.648;2022-07-06T13:19:28;4.30;;;0.68;;
25073;SDS011;13066;52.042;5.648;2022-07-06T13:21:56;4.68;;;0.85;;
25073;SDS011;13066;52.042;5.648;2022-07-06T13:24:25;1.20;;;0.93;;
25073;SDS011;13066;52.042;5.648;2022-07-06T13:26:54;1.25;;;0.45;;
25073;SDS011;13066;52.042;5.648;2022-07-06T13:29:24;2.40;;;0.93;;
25073;SDS011;13066;52.042;5.648;2022-07-06T13:31:53;2.95;;;0.77;;
25073;SDS011;13066;52.042;5.648;2022-07-06T13:34:21;0.70;;;0.60;;
25073;SDS011;13066;52.042;5.648;2022-07-06T13:36:50;1.88;;;0.65;;
25073;SDS011;13066;52.042;5.648;2022-07-06T13:39:18;3.67;;;0.75;;
25073;SDS011;13066;52.042;5.648;2022-07-06T13:41:47;2.05;;;0.60;;
25073;SDS011;13066;52.042;5.648;2022-07-06T13:44:15;4.90;;;0.88;;
25073;SDS011;13066;52.042;5.648;2022-07-06T13:46:45;5.03;;;1.38;;
25073;SDS011;13066;52.042;5.648;2022-07-06T13:49:13;1.35;;;1.08;;
25073;SDS011;13066;52.042;5.648;2022-07-06T13:51:41;1.05;;;0.60;;
25073;SDS011;13066;52.042;5.648;2022-07-06T13:54:09;1.50;;;0.80;;
25073;SDS011;13066;52.042;5.648;2022-07-06T13:56:37;1.88;;;0.40;;
25073;SDS011;13066;52.042;5.648;2022-07-06T13:59:06;3.47;;;0.70;;
25073;SDS011;13066;52.042;5.648;2022-07-06T14:01:34;4.45;;;0.90;;
25073;SDS011;13066;52.042;5.648;2022-07-06T14:04:04;5.30;;;0.80;;
25073;SDS011;13066;52.042;5.648;2022-07-06T14:06:32;2.92;;;0.90;;
25073;SDS011;13066;52.042;5.648;2022-07-06T14:09:00;3.05;;;0.98;;
25073;SDS011;13066;52.042;5.648;2022-07-06T14:11:29;1.48;;;0.55;;
25073;SDS011;13066;52.042;5.648;2022-07-06T14:13:57;4.30;;;0.80;;
25073;SDS011;13066;52.042;5.648;2022-07-06T14:16:25;1.27;;;0.50;;
25073;SDS011;13066;52.042;5.648;2022-07-06T14:18:54;2.20;;;0.60;;
25073;SDS011;13066;52.042;5.648;2022-07-06T14:21:24;8.00;;;0.93;;
25073;SDS011;13066;52.042;5.648;2022-07-06T14:23:52;1.65;;;0.70;;
25073;SDS011;13066;52.042;5.648;2022-07-06T14:26:20;1.33;;;0.73;;
25073;SDS011;13066;52.042;5.648;2022-07-06T14:28:48;4.55;;;0.85;;
25073;SDS011;13066;52.042;5.648;2022-07-06T14:31:16;2.03;;;0.73;;
25073;SDS011;13066;52.042;5.648;2022-07-06T14:33:47;3.42;;;0.68;;
25073;SDS011;13066;52.042;5.648;2022-07-06T14:36:15;7.40;;;0.98;;
25073;SDS011;13066;52.042;5.648;2022-07-06T14:38:45;2.80;;;0.73;;
25073;SDS011;13066;52.042;5.648;2022-07-06T14:41:14;3.42;;;0.70;;
25073;SDS011;13066;52.042;5.648;2022-07-06T14:43:42;1.13;;;0.60;;
25073;SDS011;13066;52.042;5.648;2022-07-06T14:46:10;1.80;;;0.88;;
25073;SDS011;13066;52.042;5.648;2022-07-06T14:48:38;6.53;;;1.10;;
25073;SDS011;13066;52.042;5.648;2022-07-06T14:51:06;1.27;;;0.80;;
25073;SDS011;13066;52.042;5.648;2022-07-06T14:53:34;1.95;;;0.90;;
25073;SDS011;13066;52.042;5.648;2022-07-06T14:56:04;3.83;;;0.80;;
25073;SDS011;13066;52.042;5.648;2022-07-06T14:58:32;2.35;;;0.95;;
25073;SDS011;13066;52.042;5.648;2022-07-06T15:01:00;3.47;;;1.08;;
25073;SDS011;13066;52.042;5.648;2022-07-06T15:03:29;3.10;;;1.00;;
25073;SDS011;13066;52.042;5.648;2022-07-06T15:05:57;4.32;;;1.10;;